Time,TemperatureF,DewpointF,PressureIn,WindDirection,WindDirectionDegrees,WindSpeedMPH,WindSpeedGustMPH,Humidity,HourlyPrecipIn,Conditions,Clouds,dailyrainin,SoftwareType,DateUTC
2013-10-01 00:00:00,48.3,46.7,29.99,East,84,0.0,0.0,94,0.00,,,0.00,Wunderground v.1.15,2013-10-01 04:00:00,
2013-10-01 00:05:00,48.2,46.6,29.99,East,83,0.0,0.0,94,0.00,,,0.00,Wunderground v.1.15,2013-10-01 04:05:00,
2013-10-01 00:10:00,48.1,46.5,29.99,East,84,0.0,0.0,94,0.00,,,0.00,Wunderground v.1.15,2013-10-01 04:10:00,
2013-10-01 00:15:00,48.3,46.7,29.99,East,83,0.0,0.0,94,0.00,,,0.00,Wunderground v.1.15,2013-10-01 04:15:00,
2013-10-01 00:20:00,48.2,46.6,29.99,East,83,0.0,0.0,94,0.00,,,0.00,Wunderground v.1.15,2013-10-01 04:20:00,
2013-10-01 00:25:00,48.0,46.4,29.99,East,83,0.0,0.0,94,0.00,,,0.00,Wunderground v.1.15,2013-10-01 04:25:00,
2013-10-01 00:30:00,47.8,46.2,29.99,East,84,0.0,0.0,94,0.00,,,0.00,Wunderground v.1.15,2013-10-01 04:30:00,
2013-10-01 00:40:00,47.4,45.8,29.99,East,84,0.0,0.0,94,0.00,,,0.00,Wunderground v.1.15,2013-10-01 04:40:00,
2013-10-01 00:45:00,47.1,45.5,29.99,East,83,0.0,0.0,94,0.00,,,0.00,Wunderground v.1.15,2013-10-01 04:45:00,
2013-10-01 00:50:00,47.0,45.6,29.98,East,83,0.0,0.0,95,0.00,,,0.00,Wunderground v.1.15,2013-10-01 04:50:00,
2013-10-01 00:55:00,46.9,45.5,29.98,East,83,0.0,0.0,95,0.00,,,0.00,Wunderground v.1.15,2013-10-01 04:55:00,
2013-10-01 01:00:00,46.7,45.3,29.98,East,83,0.0,0.0,95,0.00,,,0.00,Wunderground v.1.15,2013-10-01 05:00:00,
2013-10-01 01:10:00,46.6,45.2,29.98,East,83,0.0,0.0,95,0.00,,,0.00,Wunderground v.1.15,2013-10-01 05:10:00,
2013-10-01 01:15:00,46.4,45.0,29.98,East,84,0.0,0.0,95,0.00,,,0.00,Wunderground v.1.15,2013-10-01 05:15:00,
2013-10-01 01:25:00,45.8,44.4,29.98,East,83,0.0,0.0,95,0.00,,,0.00,Wunderground v.1.15,2013-10-01 05:25:00,
2013-10-01 01:30:00,45.2,43.9,29.99,East,83,0.0,0.0,95,0.00,,,0.00,Wunderground v.1.15,2013-10-01 05:30:00,
2013-10-01 01:35:00,45.0,43.7,29.98,East,83,0.0,0.0,95,0.00,,,0.00,Wunderground v.1.15,2013-10-01 05:35:00,
2013-10-01 01:40:00,44.6,43.3,29.98,East,83,0.0,0.0,95,0.00,,,0.00,Wunderground v.1.15,2013-10-01 05:40:00,
2013-10-01 01:45:00,44.2,42.9,29.98,East,83,0.0,0.0,95,0.00,,,0.00,Wunderground v.1.15,2013-10-01 05:45:00,
2013-10-01 01:55:00,44.1,42.8,29.98,East,83,0.0,0.0,95,0.00,,,0.00,Wunderground v.1.15,2013-10-01 05:55:00,
2013-10-01 02:00:00,44.0,42.7,29.98,East,83,0.0,1.0,95,0.00,,,0.00,Wunderground v.1.15,2013-10-01 06:00:00,
2013-10-01 02:10:00,43.6,42.3,29.98,ENE,64,1.0,1.0,95,0.00,,,0.00,Wunderground v.1.15,2013-10-01 06:10:00,
2013-10-01 02:15:00,43.3,42.0,29.98,ENE,63,0.0,1.0,95,0.00,,,0.00,Wunderground v.1.15,2013-10-01 06:15:00,
2013-10-01 02:20:00,43.0,41.7,29.98,ENE,63,0.0,0.0,95,0.00,,,0.00,Wunderground v.1.15,2013-10-01 06:20:00,
2013-10-01 02:25:00,42.7,41.4,29.98,ENE,63,0.0,0.0,95,0.00,,,0.00,Wunderground v.1.15,2013-10-01 06:25:00,
2013-10-01 02:30:00,42.6,41.3,29.98,ENE,63,0.0,0.0,95,0.00,,,0.00,Wunderground v.1.15,2013-10-01 06:30:00,
2013-10-01 02:35:00,42.5,41.4,29.98,ENE,63,0.0,0.0,96,0.00,,,0.00,Wunderground v.1.15,2013-10-01 06:35:00,
2013-10-01 02:40:00,42.5,41.4,29.98,ENE,63,0.0,0.0,96,0.00,,,0.00,Wunderground v.1.15,2013-10-01 06:40:00,
2013-10-01 02:45:00,42.5,41.4,29.98,ENE,59,0.0,0.0,96,0.00,,,0.00,Wunderground v.1.15,2013-10-01 06:45:00,
2013-10-01 02:50:00,42.2,41.1,29.98,ENE,59,0.0,0.0,96,0.00,,,0.00,Wunderground v.1.15,2013-10-01 06:50:00,
2013-10-01 02:55:00,41.8,40.5,29.97,ENE,59,0.0,0.0,95,0.00,,,0.00,Wunderground v.1.15,2013-10-01 06:55:00,
2013-10-01 03:00:00,41.6,40.5,29.98,ENE,59,0.0,0.0,96,0.00,,,0.00,Wunderground v.1.15,2013-10-01 07:00:00,
2013-10-01 03:10:00,42.0,40.9,29.98,ENE,59,0.0,0.0,96,0.00,,,0.00,Wunderground v.1.15,2013-10-01 07:10:00,
2013-10-01 03:15:00,42.2,41.1,29.98,ENE,59,0.0,0.0,96,0.00,,,0.00,Wunderground v.1.15,2013-10-01 07:15:00,
2013-10-01 03:20:00,42.2,41.1,29.98,ENE,59,0.0,0.0,96,0.00,,,0.00,Wunderground v.1.15,2013-10-01 07:20:00,
2013-10-01 03:25:00,42.2,41.1,29.98,ENE,59,0.0,0.0,96,0.00,,,0.00,Wunderground v.1.15,2013-10-01 07:25:00,
2013-10-01 03:30:00,42.0,40.9,29.97,ENE,59,0.0,0.0,96,0.00,,,0.00,Wunderground v.1.15,2013-10-01 07:30:00,
2013-10-01 03:35:00,41.9,40.8,29.97,ENE,59,0.0,0.0,96,0.00,,,0.00,Wunderground v.1.15,2013-10-01 07:35:00,
2013-10-01 03:40:00,41.5,40.4,29.97,ENE,59,0.0,0.0,96,0.00,,,0.00,Wunderground v.1.15,2013-10-01 07:40:00,
2013-10-01 03:45:00,41.4,40.3,29.97,ENE,59,0.0,0.0,96,0.00,,,0.00,Wunderground v.1.15,2013-10-01 07:45:00,
2013-10-01 03:55:00,41.2,40.1,29.97,ENE,59,0.0,0.0,96,0.00,,,0.00,Wunderground v.1.15,2013-10-01 07:55:00,
2013-10-01 04:00:00,41.1,40.0,29.97,ENE,59,0.0,0.0,96,0.00,,,0.00,Wunderground v.1.15,2013-10-01 08:00:00,
2013-10-01 04:05:00,41.0,39.9,29.97,ENE,59,0.0,0.0,96,0.00,,,0.00,Wunderground v.1.15,2013-10-01 08:05:00,
2013-10-01 04:15:00,40.6,39.5,29.97,ENE,59,0.0,0.0,96,0.00,,,0.00,Wunderground v.1.15,2013-10-01 08:15:00,
2013-10-01 04:20:00,40.4,39.4,29.97,ENE,59,0.0,0.0,96,0.00,,,0.00,Wunderground v.1.15,2013-10-01 08:20:00,
2013-10-01 04:25:00,40.4,39.4,29.97,ENE,59,0.0,0.0,96,0.00,,,0.00,Wunderground v.1.15,2013-10-01 08:25:00,
2013-10-01 04:30:00,40.4,39.4,29.97,ENE,59,0.0,0.0,96,0.00,,,0.00,Wunderground v.1.15,2013-10-01 08:30:00,
2013-10-01 04:35:00,40.4,39.4,29.97,ENE,59,0.0,0.0,96,0.00,,,0.00,Wunderground v.1.15,2013-10-01 08:35:00,
2013-10-01 04:40:00,40.2,39.2,29.97,ENE,59,0.0,0.0,96,0.00,,,0.00,Wunderground v.1.15,2013-10-01 08:40:00,
2013-10-01 04:45:00,40.0,39.0,29.98,ENE,59,0.0,0.0,96,0.00,,,0.00,Wunderground v.1.15,2013-10-01 08:45:00,
2013-10-01 04:55:00,40.3,39.3,29.98,ENE,59,0.0,0.0,96,0.00,,,0.00,Wunderground v.1.15,2013-10-01 08:55:00,
2013-10-01 05:00:00,40.3,39.3,29.98,ENE,59,0.0,0.0,96,0.00,,,0.00,Wunderground v.1.15,2013-10-01 09:00:00,
2013-10-01 05:05:00,40.1,39.1,29.98,ENE,59,0.0,0.0,96,0.00,,,0.00,Wunderground v.1.15,2013-10-01 09:05:00,
2013-10-01 05:10:00,40.1,39.1,29.98,ENE,59,0.0,0.0,96,0.00,,,0.00,Wunderground v.1.15,2013-10-01 09:10:00,
2013-10-01 05:15:00,40.0,39.0,29.98,ENE,59,0.0,0.0,96,0.00,,,0.01,Wunderground v.1.15,2013-10-01 09:15:00,
2013-10-01 05:20:00,39.8,38.8,29.98,ENE,59,0.0,0.0,96,0.00,,,0.01,Wunderground v.1.15,2013-10-01 09:20:00,
2013-10-01 05:25:00,39.7,38.7,29.98,ENE,59,0.0,0.0,96,0.00,,,0.01,Wunderground v.1.15,2013-10-01 09:25:00,
2013-10-01 05:30:00,39.8,38.8,29.98,ENE,59,0.0,0.0,96,0.00,,,0.01,Wunderground v.1.15,2013-10-01 09:30:00,
2013-10-01 05:35:00,40.0,39.2,29.98,ENE,59,0.0,0.0,97,0.00,,,0.01,Wunderground v.1.15,2013-10-01 09:35:00,
2013-10-01 05:40:00,40.2,39.4,29.98,ENE,57,0.0,0.0,97,0.00,,,0.01,Wunderground v.1.15,2013-10-01 09:40:00,
2013-10-01 05:45:00,40.3,39.5,29.98,North,11,0.0,0.0,97,0.00,,,0.01,Wunderground v.1.15,2013-10-01 09:45:00,
2013-10-01 05:50:00,40.5,39.7,29.98,NNW,327,1.0,1.0,97,0.00,,,0.01,Wunderground v.1.15,2013-10-01 09:50:00,
2013-10-01 06:00:00,40.6,39.8,29.98,NNW,327,0.0,0.0,97,0.00,,,0.01,Wunderground v.1.15,2013-10-01 10:00:00,
2013-10-01 06:10:00,40.8,40.0,29.98,NNW,327,0.0,0.0,97,0.00,,,0.01,Wunderground v.1.15,2013-10-01 10:10:00,
2013-10-01 06:15:00,41.0,40.2,29.98,NW,311,1.0,2.0,97,0.00,,,0.01,Wunderground v.1.15,2013-10-01 10:15:00,
2013-10-01 06:20:00,41.1,40.3,29.98,WNW,300,2.0,2.0,97,0.00,,,0.01,Wunderground v.1.15,2013-10-01 10:20:00,
2013-10-01 06:25:00,41.1,40.3,29.98,WNW,299,2.0,2.0,97,0.00,,,0.01,Wunderground v.1.15,2013-10-01 10:25:00,
2013-10-01 06:30:00,41.0,40.2,29.98,WNW,300,1.0,2.0,97,0.00,,,0.01,Wunderground v.1.15,2013-10-01 10:30:00,
2013-10-01 06:40:00,40.8,40.0,29.98,WNW,300,1.0,3.0,97,0.00,,,0.01,Wunderground v.1.15,2013-10-01 10:40:00,
2013-10-01 06:45:00,40.9,40.1,29.98,WNW,300,1.0,3.0,97,0.00,,,0.01,Wunderground v.1.15,2013-10-01 10:45:00,
2013-10-01 06:55:00,40.7,39.9,29.98,WNW,299,0.0,2.0,97,0.00,,,0.01,Wunderground v.1.15,2013-10-01 10:55:00,
2013-10-01 07:00:00,40.6,39.8,29.98,WNW,299,0.0,0.0,97,0.00,,,0.01,Wunderground v.1.15,2013-10-01 11:00:00,
2013-10-01 07:10:00,40.6,39.8,29.98,WNW,299,0.0,3.0,97,0.00,,,0.01,Wunderground v.1.15,2013-10-01 11:10:00,
2013-10-01 07:15:00,40.7,39.9,29.98,WNW,300,0.0,3.0,97,0.00,,,0.01,Wunderground v.1.15,2013-10-01 11:15:00,
2013-10-01 07:25:00,41.1,40.3,29.98,NW,319,1.0,3.0,97,0.00,,,0.01,Wunderground v.1.15,2013-10-01 11:25:00,
2013-10-01 07:30:00,41.3,40.5,29.98,NW,319,1.0,1.0,97,0.00,,,0.01,Wunderground v.1.15,2013-10-01 11:30:00,
2013-10-01 07:35:00,41.5,40.7,29.98,NW,319,0.0,1.0,97,0.00,,,0.01,Wunderground v.1.15,2013-10-01 11:35:00,
2013-10-01 07:55:00,41.6,40.8,29.98,NW,319,1.0,1.0,97,0.00,,,0.01,Wunderground v.1.15,2013-10-01 11:55:00,
2013-10-01 08:00:00,41.7,40.9,29.98,NW,319,0.0,0.0,97,0.00,,,0.01,Wunderground v.1.15,2013-10-01 12:00:00,
2013-10-01 08:10:00,42.0,41.2,29.98,NW,319,1.0,1.0,97,0.00,,,0.01,Wunderground v.1.15,2013-10-01 12:10:00,
2013-10-01 08:15:00,42.3,41.5,29.98,NW,319,1.0,1.0,97,0.00,,,0.01,Wunderground v.1.15,2013-10-01 12:15:00,
2013-10-01 08:20:00,42.4,41.6,29.98,NW,319,0.0,0.0,97,0.00,,,0.01,Wunderground v.1.15,2013-10-01 12:20:00,
2013-10-01 08:25:00,42.7,41.9,29.98,NW,319,1.0,1.0,97,0.00,,,0.01,Wunderground v.1.15,2013-10-01 12:25:00,
2013-10-01 08:30:00,43.0,42.2,29.98,NW,319,1.0,2.0,97,0.00,,,0.01,Wunderground v.1.15,2013-10-01 12:30:00,
2013-10-01 08:40:00,43.6,42.8,29.97,NW,319,0.0,0.0,97,0.00,,,0.01,Wunderground v.1.15,2013-10-01 12:40:00,
2013-10-01 08:45:00,44.0,43.2,29.98,NW,319,0.0,0.0,97,0.00,,,0.01,Wunderground v.1.15,2013-10-01 12:45:00,
2013-10-01 08:55:00,44.5,43.7,29.97,NW,320,0.0,0.0,97,0.00,,,0.01,Wunderground v.1.15,2013-10-01 12:55:00,
2013-10-01 09:00:00,44.9,44.1,29.98,NW,320,0.0,0.0,97,0.00,,,0.01,Wunderground v.1.15,2013-10-01 13:00:00,
2013-10-01 09:05:00,45.0,44.2,29.97,NW,320,0.0,0.0,97,0.00,,,0.01,Wunderground v.1.15,2013-10-01 13:05:00,
2013-10-01 09:15:00,45.8,45.3,29.97,NW,320,0.0,0.0,98,0.00,,,0.01,Wunderground v.1.15,2013-10-01 13:15:00,
2013-10-01 09:30:00,47.1,46.6,29.97,NW,320,0.0,0.0,98,0.00,,,0.01,Wunderground v.1.15,2013-10-01 13:30:00,
2013-10-01 09:35:00,47.7,47.2,29.96,NW,320,0.0,0.0,98,0.00,,,0.01,Wunderground v.1.15,2013-10-01 13:35:00,
2013-10-01 09:40:00,48.1,47.6,29.96,NW,320,0.0,0.0,98,0.00,,,0.01,Wunderground v.1.15,2013-10-01 13:40:00,
2013-10-01 09:45:00,48.9,48.4,29.96,NW,320,0.0,0.0,98,0.00,,,0.01,Wunderground v.1.15,2013-10-01 13:45:00,
2013-10-01 09:55:00,50.3,49.8,29.96,NW,320,0.0,0.0,98,0.00,,,0.01,Wunderground v.1.15,2013-10-01 13:55:00,
2013-10-01 10:00:00,51.1,50.6,29.96,NW,320,0.0,0.0,98,0.00,,,0.01,Wunderground v.1.15,2013-10-01 14:00:00,
2013-10-01 10:05:00,51.7,51.2,29.96,NW,320,0.0,2.0,98,0.00,,,0.01,Wunderground v.1.15,2013-10-01 14:05:00,
2013-10-01 10:10:00,52.1,51.6,29.96,NW,320,0.0,0.0,98,0.00,,,0.01,Wunderground v.1.15,2013-10-01 14:10:00,
2013-10-01 10:15:00,52.6,52.1,29.95,NW,319,0.0,0.0,98,0.00,,,0.01,Wunderground v.1.15,2013-10-01 14:15:00,
2013-10-01 10:20:00,53.3,52.8,29.95,NW,320,0.0,0.0,98,0.00,,,0.01,Wunderground v.1.15,2013-10-01 14:20:00,
2013-10-01 10:30:00,54.5,53.9,29.95,NW,320,0.0,0.0,98,0.00,,,0.01,Wunderground v.1.15,2013-10-01 14:30:00,
2013-10-01 10:40:00,55.3,54.7,29.94,NW,319,0.0,0.0,98,0.00,,,0.01,Wunderground v.1.15,2013-10-01 14:40:00,
2013-10-01 10:45:00,56.2,55.6,29.94,NW,320,0.0,0.0,98,0.00,,,0.01,Wunderground v.1.15,2013-10-01 14:45:00,
2013-10-01 10:55:00,57.6,57.0,29.94,NW,320,0.0,0.0,98,0.00,,,0.01,Wunderground v.1.15,2013-10-01 14:55:00,
2013-10-01 11:00:00,58.5,57.9,29.93,NW,319,0.0,0.0,98,0.00,,,0.01,Wunderground v.1.15,2013-10-01 15:00:00,
2013-10-01 11:05:00,59.0,58.4,29.93,NW,320,0.0,0.0,98,0.00,,,0.01,Wunderground v.1.15,2013-10-01 15:05:00,
2013-10-01 11:10:00,59.5,58.6,29.93,NNE,12,0.0,0.0,97,0.00,,,0.01,Wunderground v.1.15,2013-10-01 15:10:00,
2013-10-01 11:15:00,60.2,57.6,29.93,NE,36,0.0,0.0,91,0.00,,,0.01,Wunderground v.1.15,2013-10-01 15:15:00,
2013-10-01 11:20:00,60.9,57.9,29.93,NE,36,0.0,0.0,90,0.00,,,0.01,Wunderground v.1.15,2013-10-01 15:20:00,
2013-10-01 11:25:00,61.3,57.7,29.92,NE,36,0.0,2.0,88,0.00,,,0.01,Wunderground v.1.15,2013-10-01 15:25:00,
2013-10-01 11:30:00,62.0,57.4,29.92,NE,35,0.0,0.0,85,0.00,,,0.01,Wunderground v.1.15,2013-10-01 15:30:00,
2013-10-01 11:40:00,63.1,56.1,29.92,NE,35,1.0,1.0,78,0.00,,,0.01,Wunderground v.1.15,2013-10-01 15:40:00,
2013-10-01 11:45:00,63.9,55.8,29.91,NE,35,0.0,1.0,75,0.00,,,0.01,Wunderground v.1.15,2013-10-01 15:45:00,
2013-10-01 11:50:00,64.5,55.3,29.91,NE,34,0.0,0.0,72,0.00,,,0.01,Wunderground v.1.15,2013-10-01 15:50:00,
2013-10-01 11:55:00,65.5,54.2,29.90,NE,35,0.0,0.0,67,0.00,,,0.01,Wunderground v.1.15,2013-10-01 15:55:00,
2013-10-01 12:00:00,66.1,53.1,29.90,NE,45,0.0,0.0,63,0.00,,,0.01,Wunderground v.1.15,2013-10-01 16:00:00,
2013-10-01 12:10:00,67.2,52.8,29.89,East,81,0.0,1.0,60,0.00,,,0.01,Wunderground v.1.15,2013-10-01 16:10:00,
2013-10-01 12:15:00,67.5,51.2,29.89,East,81,1.0,1.0,56,0.00,,,0.01,Wunderground v.1.15,2013-10-01 16:15:00,
2013-10-01 12:20:00,67.9,51.1,29.89,SE,126,0.0,0.0,55,0.00,,,0.01,Wunderground v.1.15,2013-10-01 16:20:00,
2013-10-01 12:25:00,68.4,52.1,29.89,WSW,254,1.0,1.0,56,0.00,,,0.01,Wunderground v.1.15,2013-10-01 16:25:00,
2013-10-01 12:30:00,68.9,52.1,29.89,West,266,1.0,3.0,55,0.00,,,0.01,Wunderground v.1.15,2013-10-01 16:30:00,
2013-10-01 12:35:00,68.9,48.4,29.89,WSW,241,3.0,5.0,48,0.00,,,0.01,Wunderground v.1.15,2013-10-01 16:35:00,
2013-10-01 12:40:00,69.0,48.5,29.89,NW,325,4.0,9.0,48,0.00,,,0.01,Wunderground v.1.15,2013-10-01 16:40:00,
2013-10-01 12:50:00,69.1,49.7,29.88,West,273,5.0,6.0,50,0.00,,,0.01,Wunderground v.1.15,2013-10-01 16:50:00,
2013-10-01 13:00:00,69.3,48.8,29.87,West,262,3.0,4.0,48,0.00,,,0.01,Wunderground v.1.15,2013-10-01 17:00:00,
2013-10-01 13:10:00,69.8,49.8,29.87,West,269,2.0,2.0,49,0.00,,,0.01,Wunderground v.1.15,2013-10-01 17:10:00,
2013-10-01 13:15:00,70.1,50.6,29.87,West,279,1.0,2.0,50,0.00,,,0.01,Wunderground v.1.15,2013-10-01 17:15:00,
2013-10-01 13:20:00,70.6,51.6,29.86,NW,309,1.0,3.0,51,0.00,,,0.01,Wunderground v.1.15,2013-10-01 17:20:00,
2013-10-01 13:25:00,70.5,50.4,29.86,South,183,2.0,3.0,49,0.00,,,0.01,Wunderground v.1.15,2013-10-01 17:25:00,
2013-10-01 13:30:00,70.6,51.6,29.86,NNE,26,2.0,2.0,51,0.00,,,0.01,Wunderground v.1.15,2013-10-01 17:30:00,
2013-10-01 13:40:00,70.8,51.2,29.86,NNE,29,2.0,2.0,50,0.00,,,0.01,Wunderground v.1.15,2013-10-01 17:40:00,
2013-10-01 13:45:00,70.7,51.1,29.86,NNW,348,3.0,4.0,50,0.00,,,0.01,Wunderground v.1.15,2013-10-01 17:45:00,
2013-10-01 13:50:00,70.7,48.9,29.86,NNW,348,3.0,3.0,46,0.00,,,0.01,Wunderground v.1.15,2013-10-01 17:50:00,
2013-10-01 13:55:00,71.1,49.8,29.85,NNW,347,1.0,3.0,47,0.00,,,0.01,Wunderground v.1.15,2013-10-01 17:55:00,
2013-10-01 14:00:00,71.3,49.4,29.85,East,83,0.0,0.0,46,0.00,,,0.01,Wunderground v.1.15,2013-10-01 18:00:00,
2013-10-01 14:05:00,71.4,50.1,29.85,North,360,1.0,1.0,47,0.00,,,0.01,Wunderground v.1.15,2013-10-01 18:05:00,
2013-10-01 14:15:00,71.5,50.8,29.84,NNE,24,2.0,2.0,48,0.00,,,0.01,Wunderground v.1.15,2013-10-01 18:15:00,
2013-10-01 14:20:00,71.7,51.0,29.84,NNE,25,1.0,1.0,48,0.00,,,0.01,Wunderground v.1.15,2013-10-01 18:20:00,
2013-10-01 14:25:00,71.9,50.6,29.84,NE,45,0.0,1.0,47,0.00,,,0.01,Wunderground v.1.15,2013-10-01 18:25:00,
2013-10-01 14:30:00,71.7,49.2,29.84,NNE,24,1.0,1.0,45,0.00,,,0.01,Wunderground v.1.15,2013-10-01 18:30:00,
2013-10-01 14:35:00,71.8,48.7,29.84,North,355,1.0,1.0,44,0.00,,,0.01,Wunderground v.1.15,2013-10-01 18:35:00,
2013-10-01 14:40:00,71.8,51.0,29.84,NNW,348,2.0,2.0,48,0.00,,,0.01,Wunderground v.1.15,2013-10-01 18:40:00,
2013-10-01 14:45:00,71.9,49.4,29.83,ENE,74,2.0,3.0,45,0.00,,,0.01,Wunderground v.1.15,2013-10-01 18:45:00,
2013-10-01 14:50:00,72.0,50.1,29.83,NE,55,1.0,1.0,46,0.00,,,0.01,Wunderground v.1.15,2013-10-01 18:50:00,
2013-10-01 14:55:00,72.1,50.2,29.83,NNW,329,1.0,1.0,46,0.00,,,0.01,Wunderground v.1.15,2013-10-01 18:55:00,
2013-10-01 15:00:00,72.3,48.5,29.83,NW,304,2.0,5.0,43,0.00,,,0.01,Wunderground v.1.15,2013-10-01 19:00:00,
2013-10-01 15:05:00,72.2,49.7,29.83,WNW,284,3.0,5.0,45,0.00,,,0.01,Wunderground v.1.15,2013-10-01 19:05:00,
2013-10-01 15:10:00,72.2,49.1,29.83,NW,309,4.0,4.0,44,0.00,,,0.01,Wunderground v.1.15,2013-10-01 19:10:00,
2013-10-01 15:15:00,72.1,49.0,29.83,NW,311,2.0,4.0,44,0.00,,,0.01,Wunderground v.1.15,2013-10-01 19:15:00,
2013-10-01 15:20:00,72.2,49.7,29.82,NNW,338,2.0,2.0,45,0.00,,,0.01,Wunderground v.1.15,2013-10-01 19:20:00,
2013-10-01 15:25:00,72.2,49.1,29.82,WNW,292,2.0,2.0,44,0.00,,,0.01,Wunderground v.1.15,2013-10-01 19:25:00,
2013-10-01 15:30:00,72.3,48.5,29.82,NW,311,1.0,1.0,43,0.00,,,0.01,Wunderground v.1.15,2013-10-01 19:30:00,
2013-10-01 15:35:00,72.3,49.2,29.82,WNW,300,1.0,1.0,44,0.00,,,0.01,Wunderground v.1.15,2013-10-01 19:35:00,
2013-10-01 15:40:00,72.2,49.7,29.81,WNW,299,1.0,1.0,45,0.00,,,0.01,Wunderground v.1.15,2013-10-01 19:40:00,
2013-10-01 15:45:00,72.2,49.1,29.81,NW,309,0.0,1.0,44,0.00,,,0.01,Wunderground v.1.15,2013-10-01 19:45:00,
2013-10-01 15:50:00,72.2,50.3,29.81,NW,309,1.0,1.0,46,0.00,,,0.01,Wunderground v.1.15,2013-10-01 19:50:00,
2013-10-01 15:55:00,72.3,50.4,29.81,NW,309,1.0,1.0,46,0.00,,,0.01,Wunderground v.1.15,2013-10-01 19:55:00,
2013-10-01 16:00:00,72.5,51.1,29.81,NW,309,0.0,0.0,47,0.00,,,0.01,Wunderground v.1.15,2013-10-01 20:00:00,
2013-10-01 16:05:00,72.8,49.6,29.81,NW,309,0.0,0.0,44,0.00,,,0.01,Wunderground v.1.15,2013-10-01 20:05:00,
2013-10-01 16:10:00,73.1,51.1,29.81,NW,309,0.0,0.0,46,0.00,,,0.01,Wunderground v.1.15,2013-10-01 20:10:00,
2013-10-01 16:15:00,73.0,51.0,29.80,NNW,330,0.0,5.0,46,0.00,,,0.01,Wunderground v.1.15,2013-10-01 20:15:00,
2013-10-01 16:20:00,72.4,50.4,29.80,North,351,1.0,1.0,46,0.00,,,0.01,Wunderground v.1.15,2013-10-01 20:20:00,
2013-10-01 16:30:00,71.8,48.7,29.80,North,350,2.0,3.0,44,0.00,,,0.01,Wunderground v.1.15,2013-10-01 20:30:00,
2013-10-01 16:40:00,71.9,46.9,29.80,NNE,26,0.0,3.0,41,0.00,,,0.01,Wunderground v.1.15,2013-10-01 20:40:00,
2013-10-01 16:45:00,71.9,49.4,29.80,NNE,29,0.0,3.0,45,0.00,,,0.01,Wunderground v.1.15,2013-10-01 20:45:00,
2013-10-01 16:50:00,71.7,48.6,29.80,NNE,29,0.0,0.0,44,0.00,,,0.01,Wunderground v.1.15,2013-10-01 20:50:00,
2013-10-01 16:55:00,71.4,46.5,29.81,NNE,16,1.0,2.0,41,0.00,,,0.01,Wunderground v.1.15,2013-10-01 20:55:00,
2013-10-01 17:00:00,71.2,46.3,29.81,NNE,16,1.0,1.0,41,0.00,,,0.01,Wunderground v.1.15,2013-10-01 21:00:00,
2013-10-01 17:05:00,71.0,46.1,29.81,NNE,16,0.0,1.0,41,0.00,,,0.01,Wunderground v.1.15,2013-10-01 21:05:00,
2013-10-01 17:15:00,70.6,44.4,29.81,NNE,16,0.0,0.0,39,0.00,,,0.01,Wunderground v.1.15,2013-10-01 21:15:00,
2013-10-01 17:20:00,70.3,43.5,29.81,NNE,16,0.0,0.0,38,0.00,,,0.01,Wunderground v.1.15,2013-10-01 21:20:00,
2013-10-01 17:31:00,69.1,42.4,29.80,NNE,15,0.0,0.0,38,0.00,,,0.01,Wunderground v.1.15,2013-10-01 21:31:00,
2013-10-01 17:40:00,67.2,42.0,29.81,NNE,16,0.0,0.0,40,0.00,,,0.01,Wunderground v.1.15,2013-10-01 21:40:00,
2013-10-01 17:45:00,66.1,42.3,29.81,NNE,15,0.0,0.0,42,0.00,,,0.01,Wunderground v.1.15,2013-10-01 21:45:00,
2013-10-01 17:50:00,65.2,40.9,29.80,NNE,16,0.0,0.0,41,0.00,,,0.01,Wunderground v.1.15,2013-10-01 21:50:00,
2013-10-01 17:55:00,64.5,42.7,29.81,NNE,16,0.0,0.0,45,0.00,,,0.01,Wunderground v.1.15,2013-10-01 21:55:00,
2013-10-01 18:00:00,63.8,44.3,29.81,NNE,16,1.0,1.0,49,0.00,,,0.01,Wunderground v.1.15,2013-10-01 22:00:00,
2013-10-01 18:10:00,62.8,43.9,29.81,NNE,16,1.0,1.0,50,0.00,,,0.01,Wunderground v.1.15,2013-10-01 22:10:00,
2013-10-01 18:15:00,61.8,44.0,29.81,NNE,15,1.0,2.0,52,0.00,,,0.01,Wunderground v.1.15,2013-10-01 22:15:00,
2013-10-01 18:20:00,61.4,42.1,29.81,NNE,16,1.0,1.0,49,0.00,,,0.01,Wunderground v.1.15,2013-10-01 22:20:00,
2013-10-01 18:25:00,61.2,43.9,29.81,NNE,16,1.0,1.0,53,0.00,,,0.01,Wunderground v.1.15,2013-10-01 22:25:00,
2013-10-01 18:30:00,60.9,44.1,29.81,NNE,15,0.0,0.0,54,0.00,,,0.01,Wunderground v.1.15,2013-10-01 22:30:00,
2013-10-01 18:35:00,60.5,44.2,29.81,NNE,15,0.0,1.0,55,0.00,,,0.01,Wunderground v.1.15,2013-10-01 22:35:00,
2013-10-01 18:45:00,59.6,43.4,29.81,NNE,16,1.0,1.0,55,0.00,,,0.01,Wunderground v.1.15,2013-10-01 22:45:00,
2013-10-01 18:55:00,59.6,42.9,29.81,NNE,16,0.0,1.0,54,0.00,,,0.01,Wunderground v.1.15,2013-10-01 22:55:00,
2013-10-01 19:00:00,59.7,43.0,29.80,NNE,16,0.0,0.0,54,0.00,,,0.01,Wunderground v.1.15,2013-10-01 23:00:00,
2013-10-01 19:10:00,59.8,42.1,29.81,NNE,15,0.0,0.0,52,0.00,,,0.01,Wunderground v.1.15,2013-10-01 23:10:00,
2013-10-01 19:15:00,60.0,42.8,29.81,NNE,16,0.0,0.0,53,0.00,,,0.01,Wunderground v.1.15,2013-10-01 23:15:00,
2013-10-01 19:20:00,60.2,43.0,29.81,NNE,15,0.0,0.0,53,0.00,,,0.01,Wunderground v.1.15,2013-10-01 23:20:00,
2013-10-01 19:30:00,60.0,43.3,29.81,NNE,16,0.0,0.0,54,0.00,,,0.01,Wunderground v.1.15,2013-10-01 23:30:00,
2013-10-01 19:35:00,59.8,43.6,29.81,NNE,16,0.0,0.0,55,0.00,,,0.01,Wunderground v.1.15,2013-10-01 23:35:00,
2013-10-01 19:40:00,59.4,44.2,29.81,NNE,15,0.0,0.0,57,0.00,,,0.01,Wunderground v.1.15,2013-10-01 23:40:00,
2013-10-01 19:45:00,59.3,43.6,29.81,NNE,16,0.0,0.0,56,0.00,,,0.01,Wunderground v.1.15,2013-10-01 23:45:00,
2013-10-01 19:50:00,59.3,44.5,29.81,NNE,16,0.0,0.0,58,0.00,,,0.01,Wunderground v.1.15,2013-10-01 23:50:00,
2013-10-01 19:55:00,59.0,44.7,29.81,NNE,16,0.0,0.0,59,0.00,,,0.01,Wunderground v.1.15,2013-10-01 23:55:00,
2013-10-01 20:00:00,58.7,44.8,29.81,NNE,15,0.0,0.0,60,0.00,,,0.01,Wunderground v.1.15,2013-10-02 00:00:00,
2013-10-01 20:05:00,58.1,44.7,29.81,NNE,16,0.0,0.0,61,0.00,,,0.01,Wunderground v.1.15,2013-10-02 00:05:00,
2013-10-01 20:10:00,57.2,44.7,29.81,NNE,16,0.0,0.0,63,0.00,,,0.01,Wunderground v.1.15,2013-10-02 00:10:00,
2013-10-01 20:15:00,56.9,45.3,29.81,NNE,15,0.0,0.0,65,0.00,,,0.01,Wunderground v.1.15,2013-10-02 00:15:00,
2013-10-01 20:20:00,56.8,45.2,29.81,NNE,15,0.0,0.0,65,0.00,,,0.01,Wunderground v.1.15,2013-10-02 00:20:00,
2013-10-01 20:25:00,56.8,45.6,29.81,NNE,15,0.0,0.0,66,0.00,,,0.01,Wunderground v.1.15,2013-10-02 00:25:00,
2013-10-01 20:30:00,56.7,45.5,29.81,NNE,16,0.0,0.0,66,0.00,,,0.01,Wunderground v.1.15,2013-10-02 00:30:00,
2013-10-01 20:35:00,56.6,45.8,29.81,NNE,16,0.0,0.0,67,0.00,,,0.01,Wunderground v.1.15,2013-10-02 00:35:00,
2013-10-01 20:40:00,56.3,45.5,29.81,NNE,16,0.0,0.0,67,0.00,,,0.01,Wunderground v.1.15,2013-10-02 00:40:00,
2013-10-01 20:45:00,56.0,45.6,29.81,NNE,16,0.0,0.0,68,0.00,,,0.01,Wunderground v.1.15,2013-10-02 00:45:00,
2013-10-01 20:55:00,55.3,45.7,29.81,NNE,15,0.0,0.0,70,0.00,,,0.01,Wunderground v.1.15,2013-10-02 00:55:00,
2013-10-01 21:00:00,54.9,45.7,29.80,NNE,16,0.0,0.0,71,0.00,,,0.01,Wunderground v.1.15,2013-10-02 01:00:00,
2013-10-01 21:05:00,54.6,45.8,29.81,NNE,16,0.0,0.0,72,0.00,,,0.01,Wunderground v.1.15,2013-10-02 01:05:00,
2013-10-01 21:10:00,54.2,45.7,29.81,NNE,16,0.0,0.0,73,0.00,,,0.01,Wunderground v.1.15,2013-10-02 01:10:00,
2013-10-01 21:15:00,53.9,45.4,29.81,NNE,15,0.0,0.0,73,0.00,,,0.01,Wunderground v.1.15,2013-10-02 01:15:00,
2013-10-01 21:20:00,53.7,45.6,29.81,NNE,16,0.0,0.0,74,0.00,,,0.01,Wunderground v.1.15,2013-10-02 01:20:00,
2013-10-01 21:25:00,53.7,45.6,29.81,NNE,15,0.0,0.0,74,0.00,,,0.01,Wunderground v.1.15,2013-10-02 01:25:00,
2013-10-01 21:30:00,53.6,45.5,29.81,NNE,15,0.0,0.0,74,0.00,,,0.01,Wunderground v.1.15,2013-10-02 01:30:00,
2013-10-01 21:35:00,53.5,45.8,29.81,NNE,15,0.0,0.0,75,0.00,,,0.01,Wunderground v.1.15,2013-10-02 01:35:00,
2013-10-01 21:40:00,53.4,46.0,29.81,NNE,16,0.0,0.0,76,0.00,,,0.01,Wunderground v.1.15,2013-10-02 01:40:00,
2013-10-01 21:45:00,53.2,45.8,29.80,NNE,16,0.0,0.0,76,0.00,,,0.01,Wunderground v.1.15,2013-10-02 01:45:00,
2013-10-01 21:50:00,53.0,46.0,29.81,NNE,16,0.0,0.0,77,0.00,,,0.01,Wunderground v.1.15,2013-10-02 01:50:00,
2013-10-01 21:55:00,52.7,45.7,29.80,NNE,15,0.0,0.0,77,0.00,,,0.01,Wunderground v.1.15,2013-10-02 01:55:00,
2013-10-01 22:00:00,52.5,45.8,29.81,NNE,16,0.0,0.0,78,0.00,,,0.01,Wunderground v.1.15,2013-10-02 02:00:00,
2013-10-01 22:05:00,52.1,45.8,29.81,NNE,16,0.0,0.0,79,0.00,,,0.01,Wunderground v.1.15,2013-10-02 02:05:00,
2013-10-01 22:10:00,51.8,45.8,29.81,NNE,16,0.0,0.0,80,0.00,,,0.01,Wunderground v.1.15,2013-10-02 02:10:00,
2013-10-01 22:15:00,51.4,46.1,29.81,NNE,16,0.0,0.0,82,0.00,,,0.01,Wunderground v.1.15,2013-10-02 02:15:00,
2013-10-01 22:20:00,51.1,45.8,29.80,NNE,16,0.0,0.0,82,0.00,,,0.01,Wunderground v.1.15,2013-10-02 02:20:00,
2013-10-01 22:25:00,50.8,45.8,29.80,NNE,16,0.0,0.0,83,0.00,,,0.01,Wunderground v.1.15,2013-10-02 02:25:00,
2013-10-01 22:30:00,50.6,45.9,29.80,NNE,15,0.0,0.0,84,0.00,,,0.01,Wunderground v.1.15,2013-10-02 02:30:00,
2013-10-01 22:40:00,50.4,46.1,29.80,NNE,16,0.0,1.0,85,0.00,,,0.01,Wunderground v.1.15,2013-10-02 02:40:00,
2013-10-01 22:45:00,50.8,46.1,29.80,NNE,16,1.0,1.0,84,0.00,,,0.01,Wunderground v.1.15,2013-10-02 02:45:00,
2013-10-01 22:50:00,51.0,46.3,29.80,NNE,16,1.0,1.0,84,0.00,,,0.01,Wunderground v.1.15,2013-10-02 02:50:00,
2013-10-01 22:55:00,51.2,46.5,29.79,NNE,16,0.0,1.0,84,0.00,,,0.01,Wunderground v.1.15,2013-10-02 02:55:00,
2013-10-01 23:00:00,51.4,46.4,29.79,NNE,15,0.0,0.0,83,0.00,,,0.01,Wunderground v.1.15,2013-10-02 03:00:00,
2013-10-01 23:05:00,51.5,46.5,29.79,NNE,15,0.0,0.0,83,0.00,,,0.01,Wunderground v.1.15,2013-10-02 03:05:00,
2013-10-01 23:10:00,51.5,46.5,29.79,NNE,15,0.0,0.0,83,0.00,,,0.01,Wunderground v.1.15,2013-10-02 03:10:00,
2013-10-01 23:15:00,51.3,46.3,29.79,NNE,16,0.0,0.0,83,0.00,,,0.01,Wunderground v.1.15,2013-10-02 03:15:00,
2013-10-01 23:20:00,51.2,46.5,29.79,NNE,16,0.0,0.0,84,0.00,,,0.01,Wunderground v.1.15,2013-10-02 03:20:00,
2013-10-01 23:25:00,50.9,46.2,29.79,NNE,16,0.0,0.0,84,0.00,,,0.01,Wunderground v.1.15,2013-10-02 03:25:00,
2013-10-01 23:31:00,50.6,45.9,29.78,NNE,15,0.0,0.0,84,0.00,,,0.01,Wunderground v.1.15,2013-10-02 03:31:00,
2013-10-01 23:40:00,49.9,45.3,29.78,NNE,16,0.0,2.0,84,0.00,,,0.01,Wunderground v.1.15,2013-10-02 03:40:00,
2013-10-01 23:45:00,49.5,45.2,29.78,NNE,15,1.0,2.0,85,0.00,,,0.01,Wunderground v.1.15,2013-10-02 03:45:00,
2013-10-01 23:50:00,49.4,45.1,29.78,NNE,15,0.0,0.0,85,0.00,,,0.01,Wunderground v.1.15,2013-10-02 03:50:00,
2013-10-01 23:55:00,49.5,45.2,29.78,NNE,16,0.0,0.0,85,0.00,,,0.00,Wunderground v.1.15,2013-10-02 03:55:00,